createdAt,value
2018-09-17T00:00:55.791Z,24.00
2018-09-17T00:03:22.269Z,24.00
2018-09-17T00:05:48.785Z,24.00
2018-09-17T00:08:15.252Z,24.00
2018-09-17T00:10:41.736Z,24.10
2018-09-17T00:13:08.819Z,24.00
2018-09-17T00:15:35.270Z,24.00
2018-09-17T00:18:01.870Z,24.00
2018-09-17T00:20:28.815Z,24.00
2018-09-17T00:22:55.256Z,24.00
2018-09-17T00:25:21.681Z,24.00
2018-09-17T00:27:48.106Z,24.00
2018-09-17T00:30:14.592Z,24.10
2018-09-17T00:32:41.058Z,24.00
2018-09-17T00:35:07.506Z,24.00
2018-09-17T00:37:33.992Z,24.00
2018-09-17T00:40:00.424Z,24.00
2018-09-17T00:42:26.876Z,24.00
2018-09-17T00:44:53.360Z,24.00
2018-09-17T00:47:20.141Z,24.00
2018-09-17T00:49:46.613Z,24.00
2018-09-17T00:52:13.102Z,24.00
2018-09-17T00:54:39.636Z,24.00
2018-09-17T00:57:06.084Z,24.00
2018-09-17T00:59:32.536Z,24.00
2018-09-17T01:01:58.975Z,24.00
2018-09-17T01:04:25.412Z,24.00
2018-09-17T01:06:52.351Z,24.00
2018-09-17T01:09:24.507Z,24.00
2018-09-17T01:11:51.086Z,24.00
2018-09-17T01:14:17.726Z,24.00
2018-09-17T01:16:44.452Z,24.00
2018-09-17T01:19:10.906Z,24.00
2018-09-17T01:21:37.372Z,24.00
2018-09-17T01:24:03.821Z,24.00
2018-09-17T01:26:30.271Z,24.00
2018-09-17T01:28:56.705Z,24.00
2018-09-17T01:31:23.222Z,24.00
2018-09-17T01:33:49.706Z,24.00
2018-09-17T01:36:16.190Z,24.00
2018-09-17T01:38:42.687Z,24.00
2018-09-17T01:41:09.210Z,24.00
2018-09-17T01:43:35.749Z,24.00
2018-09-17T01:46:02.270Z,23.80
2018-09-17T01:48:28.733Z,24.00
2018-09-17T01:50:55.245Z,23.90
2018-09-17T01:53:21.753Z,24.00
2018-09-17T01:55:48.228Z,24.00
2018-09-17T01:58:14.670Z,24.00
2018-09-17T02:00:41.136Z,24.00
2018-09-17T02:03:07.779Z,24.00
2018-09-17T02:05:34.243Z,23.90
2018-09-17T02:08:00.734Z,23.90
2018-09-17T02:10:27.162Z,23.90
2018-09-17T02:12:53.637Z,23.90
2018-09-17T02:15:20.627Z,24.00
2018-09-17T02:17:47.071Z,24.00
2018-09-17T02:20:13.531Z,24.00
2018-09-17T02:22:40.014Z,24.00
2018-09-17T02:25:06.503Z,23.90
2018-09-17T02:27:33.035Z,24.00
2018-09-17T02:29:59.509Z,23.90
2018-09-17T02:32:25.971Z,23.90
2018-09-17T02:34:52.507Z,23.90
2018-09-17T02:37:19.295Z,24.00
2018-09-17T02:39:45.857Z,24.00
2018-09-17T02:42:12.362Z,24.00
2018-09-17T02:44:38.871Z,23.90
2018-09-17T02:47:05.331Z,23.90
2018-09-17T02:49:31.847Z,24.00
2018-09-17T02:51:58.327Z,23.90
2018-09-17T02:54:24.775Z,23.90
2018-09-17T02:56:51.927Z,23.90
2018-09-17T02:59:18.380Z,23.90
2018-09-17T03:01:44.865Z,23.90
2018-09-17T03:04:11.383Z,24.00
2018-09-17T03:06:37.926Z,23.90
2018-09-17T03:09:04.384Z,23.90
2018-09-17T03:11:31.463Z,23.90
2018-09-17T03:13:57.925Z,23.90
2018-09-17T03:16:24.437Z,23.90
2018-09-17T03:18:51.276Z,23.90
2018-09-17T03:21:17.746Z,23.90
2018-09-17T03:23:44.229Z,23.90
2018-09-17T03:26:10.744Z,23.90
2018-09-17T03:28:37.244Z,23.90
2018-09-17T03:31:03.760Z,23.90
2018-09-17T03:33:30.227Z,23.90
2018-09-17T03:35:56.664Z,23.90
2018-09-17T03:38:28.836Z,23.90
2018-09-17T03:40:55.342Z,23.90
2018-09-17T03:43:21.770Z,23.90
2018-09-17T03:45:48.587Z,23.90
2018-09-17T03:48:15.103Z,23.90
2018-09-17T03:50:41.614Z,23.90
2018-09-17T03:53:08.081Z,23.90
2018-09-17T03:55:35.281Z,23.90
2018-09-17T03:58:01.773Z,23.90
2018-09-17T04:00:28.190Z,23.90
2018-09-17T04:02:54.707Z,23.90
2018-09-17T04:05:21.258Z,23.90
2018-09-17T04:07:47.746Z,23.90
2018-09-17T04:10:14.234Z,23.90
2018-09-17T04:12:40.720Z,23.80
2018-09-17T04:15:07.239Z,23.90
2018-09-17T04:17:33.717Z,23.90
2018-09-17T04:20:00.190Z,23.90
2018-09-17T04:22:26.656Z,23.90
2018-09-17T04:24:53.134Z,23.90
2018-09-17T04:27:19.964Z,23.90
2018-09-17T04:29:46.440Z,23.90
2018-09-17T04:32:13.486Z,24.00
2018-09-17T04:34:39.998Z,23.90
2018-09-17T04:37:06.480Z,23.90
2018-09-17T04:39:33.005Z,23.90
2018-09-17T04:41:59.518Z,23.90
2018-09-17T04:44:26.238Z,23.90
2018-09-17T04:46:54.119Z,23.90
2018-09-17T04:49:20.695Z,23.90
2018-09-17T04:51:47.176Z,23.90
2018-09-17T04:54:13.681Z,23.80
2018-09-17T04:56:40.304Z,23.90
2018-09-17T04:59:06.816Z,23.80
2018-09-17T05:01:33.291Z,23.80
2018-09-17T05:03:59.821Z,23.80
2018-09-17T05:06:26.268Z,23.80
2018-09-17T05:08:53.851Z,23.80
2018-09-17T05:11:20.305Z,23.70
2018-09-17T05:13:46.950Z,23.70
2018-09-17T05:16:13.438Z,23.70
2018-09-17T05:18:39.898Z,23.70
2018-09-17T05:21:06.388Z,23.70
2018-09-17T05:23:32.865Z,23.70
2018-09-17T05:25:59.365Z,23.70
2018-09-17T05:28:26.117Z,23.70
2018-09-17T05:30:52.602Z,23.70
2018-09-17T05:33:19.059Z,23.70
2018-09-17T05:35:45.593Z,23.70
2018-09-17T05:38:12.080Z,23.70
2018-09-17T05:40:38.565Z,23.70
2018-09-17T05:43:05.082Z,23.80
2018-09-17T05:45:31.661Z,23.70
2018-09-17T05:47:58.134Z,23.70
2018-09-17T05:50:24.598Z,23.70
2018-09-17T05:52:51.063Z,23.70
2018-09-17T05:55:17.526Z,23.70
2018-09-17T05:57:43.977Z,23.70
2018-09-17T06:00:10.437Z,23.70
2018-09-17T06:02:37.580Z,23.70
2018-09-17T06:05:04.170Z,23.70
2018-09-17T06:07:30.646Z,23.70
2018-09-17T06:09:57.150Z,23.70
2018-09-17T06:12:23.646Z,23.80
2018-09-17T06:14:50.129Z,23.70
2018-09-17T06:17:17.161Z,23.80
2018-09-17T06:19:43.667Z,23.80
2018-09-17T06:22:10.176Z,23.70
2018-09-17T06:24:36.649Z,23.80
2018-09-17T06:27:03.134Z,23.70
2018-09-17T06:29:29.595Z,23.70
2018-09-17T06:31:56.077Z,23.70
2018-09-17T06:34:22.512Z,23.70
2018-09-17T06:36:48.977Z,23.70
2018-09-17T06:39:15.504Z,23.70
2018-09-17T06:41:42.132Z,23.70
2018-09-17T06:44:08.625Z,23.80
2018-09-17T06:46:35.129Z,23.70
2018-09-17T06:49:01.591Z,23.80
2018-09-17T06:51:28.443Z,23.80
2018-09-17T06:53:55.135Z,23.80
2018-09-17T06:56:21.589Z,23.80
2018-09-17T06:58:48.245Z,23.80
2018-09-17T07:01:14.711Z,23.80
2018-09-17T07:03:41.196Z,23.80
2018-09-17T07:06:07.738Z,23.80
2018-09-17T07:08:34.243Z,23.90
2018-09-17T07:11:00.731Z,23.90
2018-09-17T07:13:27.177Z,23.80
2018-09-17T07:15:53.654Z,23.90
2018-09-17T07:18:20.120Z,23.80
2018-09-17T07:20:54.532Z,23.90
2018-09-17T07:26:11.003Z,23.90
2018-09-17T07:28:37.587Z,23.90
2018-09-17T07:31:04.038Z,23.90
2018-09-17T07:33:30.526Z,23.90
2018-09-17T07:35:56.993Z,23.90
2018-09-17T07:38:23.474Z,23.80
2018-09-17T07:40:49.935Z,23.90
2018-09-17T07:43:16.403Z,23.90
2018-09-17T07:45:42.869Z,23.80
2018-09-17T07:48:09.360Z,23.90
2018-09-17T07:50:35.812Z,23.80
2018-09-17T07:53:02.328Z,23.90
2018-09-17T07:55:28.742Z,23.90
2018-09-17T07:57:55.361Z,23.90
2018-09-17T08:00:21.863Z,23.90
2018-09-17T08:02:48.620Z,23.80
2018-09-17T08:05:15.384Z,23.90
2018-09-17T08:07:41.875Z,23.60
2018-09-17T08:10:08.370Z,23.90
2018-09-17T08:12:34.904Z,23.90
2018-09-17T08:15:01.360Z,24.00
2018-09-17T08:17:27.952Z,24.00
2018-09-17T08:19:54.581Z,24.00
2018-09-17T08:22:21.010Z,24.00
2018-09-17T08:24:47.478Z,24.00
2018-09-17T08:27:13.923Z,24.00
2018-09-17T08:29:40.388Z,24.00
2018-09-17T08:32:06.828Z,24.00
2018-09-17T08:34:33.342Z,24.00
2018-09-17T08:36:59.833Z,24.00
2018-09-17T08:39:26.334Z,24.00
2018-09-17T08:41:52.827Z,24.00
2018-09-17T08:44:19.390Z,24.10
2018-09-17T08:46:45.883Z,24.10
2018-09-17T08:49:12.347Z,25.60
2018-09-17T08:51:38.810Z,24.10
2018-09-17T08:54:05.270Z,24.10
2018-09-17T08:56:37.530Z,24.20
2018-09-17T08:59:05.593Z,24.00
2018-09-17T09:01:37.792Z,24.00
2018-09-17T09:04:09.978Z,23.90
2018-09-17T09:06:42.055Z,23.90
2018-09-17T09:09:09.143Z,23.90
2018-09-17T09:11:41.164Z,23.80
2018-09-17T09:14:09.873Z,23.80
2018-09-17T09:16:36.372Z,23.90
2018-09-17T09:19:02.852Z,23.80
2018-09-17T09:21:29.323Z,23.90
2018-09-17T09:23:55.782Z,23.90
2018-09-17T09:26:23.450Z,23.90
2018-09-17T09:28:49.921Z,23.90
2018-09-17T09:31:16.400Z,24.00
2018-09-17T09:33:43.528Z,24.00
2018-09-17T09:36:10.040Z,23.90
2018-09-17T09:38:36.515Z,23.90
2018-09-17T09:41:02.951Z,23.90
2018-09-17T09:43:29.399Z,24.00
2018-09-17T09:45:55.875Z,23.90
2018-09-17T09:48:22.362Z,24.00
2018-09-17T09:50:48.827Z,24.00
2018-09-17T09:53:15.313Z,24.00
2018-09-17T09:55:41.755Z,24.00
2018-09-17T09:58:08.261Z,24.00
2018-09-17T10:00:40.309Z,24.00
2018-09-17T10:03:12.440Z,24.00
2018-09-17T10:05:38.930Z,24.00
2018-09-17T10:08:05.422Z,24.00
2018-09-17T10:10:37.653Z,24.00
2018-09-17T10:13:09.703Z,24.00
2018-09-17T10:15:41.763Z,24.00
2018-09-17T10:18:13.858Z,24.00
2018-09-17T10:20:40.369Z,24.00
2018-09-17T10:23:06.847Z,24.00
2018-09-17T10:25:33.329Z,24.00
2018-09-17T10:27:59.806Z,24.00
2018-09-17T10:30:26.247Z,24.00
2018-09-17T10:32:52.703Z,24.00
2018-09-17T10:35:19.706Z,24.10
2018-09-17T10:37:46.185Z,24.10
2018-09-17T10:40:12.660Z,24.10
2018-09-17T10:42:39.149Z,24.10
2018-09-17T10:45:05.615Z,24.10
2018-09-17T10:47:32.333Z,24.10
2018-09-17T10:49:58.825Z,24.10
2018-09-17T10:52:25.290Z,24.10
2018-09-17T10:54:51.869Z,24.10
2018-09-17T10:57:19.902Z,24.20
2018-09-17T10:59:46.427Z,24.20
2018-09-17T11:02:12.954Z,24.20
2018-09-17T11:04:39.416Z,24.20
2018-09-17T11:07:05.946Z,24.20
2018-09-17T11:09:32.430Z,24.20
2018-09-17T11:11:59.009Z,24.20
2018-09-17T11:14:25.494Z,24.20
2018-09-17T11:16:51.983Z,24.20
2018-09-17T11:19:18.439Z,24.20
2018-09-17T11:21:45.510Z,24.20
2018-09-17T11:24:11.993Z,24.20
2018-09-17T11:26:38.490Z,24.30
2018-09-17T11:29:04.960Z,24.30
2018-09-17T11:31:31.431Z,24.30
2018-09-17T11:33:57.905Z,24.20
2018-09-17T11:36:24.388Z,24.30
2018-09-17T11:38:50.860Z,24.30
2018-09-17T11:41:17.348Z,24.30
2018-09-17T11:43:43.820Z,24.30
2018-09-17T11:46:10.271Z,24.30
2018-09-17T11:48:36.721Z,24.30
2018-09-17T11:51:04.043Z,24.20
2018-09-17T11:53:31.092Z,24.20
2018-09-17T11:55:57.603Z,24.20
2018-09-17T11:58:24.131Z,24.20
2018-09-17T12:00:56.183Z,24.20
2018-09-17T12:03:28.319Z,24.20
2018-09-17T12:06:01.292Z,24.20
2018-09-17T12:08:27.759Z,24.20
2018-09-17T12:10:54.346Z,24.20
2018-09-17T12:13:20.809Z,24.20
2018-09-17T12:15:47.484Z,24.20
2018-09-17T12:18:13.949Z,24.20
2018-09-17T12:20:40.459Z,24.20
2018-09-17T12:23:07.781Z,24.20
2018-09-17T12:25:34.607Z,24.30
2018-09-17T12:28:01.093Z,24.40
2018-09-17T12:30:27.539Z,24.50
2018-09-17T12:32:53.999Z,24.30
2018-09-17T12:35:20.487Z,24.30
2018-09-17T12:37:46.945Z,24.30
2018-09-17T12:40:13.452Z,24.20
2018-09-17T12:42:39.979Z,24.30
2018-09-17T12:45:06.482Z,24.20
2018-09-17T12:47:33.579Z,24.30
2018-09-17T12:50:06.346Z,24.30
2018-09-17T12:52:32.855Z,24.30
2018-09-17T12:54:59.310Z,24.20
2018-09-17T12:57:25.880Z,24.20
2018-09-17T12:59:52.437Z,24.30
2018-09-17T13:02:18.993Z,24.30
2018-09-17T13:04:45.498Z,24.30
2018-09-17T13:07:11.946Z,24.30
2018-09-17T13:09:38.486Z,24.20
2018-09-17T13:12:04.960Z,24.30
2018-09-17T13:14:31.443Z,24.30
2018-09-17T13:16:57.937Z,24.30
2018-09-17T13:19:24.424Z,24.30
2018-09-17T13:21:50.902Z,24.20
2018-09-17T13:24:17.399Z,24.20
2018-09-17T13:26:43.872Z,24.20
2018-09-17T13:29:10.328Z,24.20
2018-09-17T13:31:36.793Z,24.20
2018-09-17T13:34:03.262Z,24.30
2018-09-17T13:36:29.729Z,24.20
2018-09-17T13:38:56.963Z,24.30
2018-09-17T13:41:23.594Z,24.30
2018-09-17T13:43:50.069Z,24.30
2018-09-17T13:46:16.775Z,24.20
2018-09-17T13:48:43.257Z,24.20
2018-09-17T13:51:09.770Z,24.20
2018-09-17T13:53:36.309Z,24.30
2018-09-17T13:56:03.276Z,24.20
2018-09-17T13:58:29.722Z,24.30
2018-09-17T14:00:56.168Z,24.20
2018-09-17T14:03:22.685Z,24.20
2018-09-17T14:05:49.725Z,24.30
2018-09-17T14:08:16.294Z,24.30
2018-09-17T14:10:42.754Z,24.30
2018-09-17T14:13:09.231Z,24.20
2018-09-17T14:15:35.762Z,24.20
2018-09-17T14:18:02.206Z,24.20
2018-09-17T14:20:28.624Z,24.20
2018-09-17T14:22:55.120Z,24.20
2018-09-17T14:25:21.648Z,24.20
2018-09-17T14:27:48.124Z,24.20
2018-09-17T14:30:14.633Z,24.20
2018-09-17T14:32:46.837Z,24.20
2018-09-17T14:35:13.421Z,24.20
2018-09-17T14:37:40.149Z,24.20
2018-09-17T14:40:06.691Z,24.20
2018-09-17T14:42:33.197Z,24.20
2018-09-17T14:44:59.728Z,24.20
2018-09-17T14:47:26.205Z,24.20
2018-09-17T14:49:52.734Z,24.10
2018-09-17T14:52:19.301Z,24.20
2018-09-17T14:54:45.859Z,24.20
2018-09-17T14:57:12.887Z,24.20
2018-09-17T14:59:39.359Z,24.20
2018-09-17T15:02:05.859Z,24.20
2018-09-17T15:04:32.321Z,24.20
2018-09-17T15:06:58.784Z,24.20
2018-09-17T15:09:25.267Z,24.20
2018-09-17T15:11:51.788Z,24.20
2018-09-17T15:14:18.474Z,24.20
2018-09-17T15:16:44.989Z,24.20
2018-09-17T15:19:11.497Z,24.20
2018-09-17T15:21:37.996Z,24.20
2018-09-17T15:24:04.574Z,24.20
2018-09-17T15:26:31.042Z,24.20
2018-09-17T15:28:57.486Z,24.10
2018-09-17T15:31:24.477Z,24.20
2018-09-17T15:33:50.936Z,24.20
2018-09-17T15:36:17.435Z,24.20
2018-09-17T15:38:43.965Z,24.20
2018-09-17T15:41:10.648Z,24.20
2018-09-17T15:43:37.023Z,24.20
2018-09-17T15:46:03.540Z,24.10
2018-09-17T15:51:00.136Z,24.10
2018-09-17T15:53:26.607Z,24.10
2018-09-17T15:55:53.066Z,24.10
2018-09-17T15:58:19.671Z,24.10
2018-09-17T16:00:46.107Z,24.10
2018-09-17T16:03:12.565Z,24.20
2018-09-17T16:05:39.074Z,24.20
2018-09-17T16:08:05.565Z,24.20
2018-09-17T16:10:32.129Z,24.10
2018-09-17T16:12:58.657Z,24.20
2018-09-17T16:15:25.127Z,24.30
2018-09-17T16:17:51.620Z,24.30
2018-09-17T16:20:18.104Z,24.20
2018-09-17T16:22:44.571Z,24.10
2018-09-17T16:25:11.073Z,24.20
2018-09-17T16:27:37.589Z,24.20
2018-09-17T16:30:04.127Z,24.20
2018-09-17T16:32:30.632Z,24.20
2018-09-17T16:34:57.185Z,24.20
2018-09-17T16:37:23.690Z,24.10
2018-09-17T16:39:50.143Z,24.10
2018-09-17T16:42:16.713Z,23.90
2018-09-17T16:44:43.335Z,24.20
2018-09-17T16:47:09.828Z,24.20
2018-09-17T16:49:36.326Z,24.20
2018-09-17T16:52:02.791Z,24.10
2018-09-17T16:54:30.293Z,24.10
2018-09-17T16:56:56.778Z,24.10
2018-09-17T16:59:23.404Z,24.20
2018-09-17T17:01:49.895Z,24.20
2018-09-17T17:04:16.618Z,24.20
2018-09-17T17:06:43.747Z,24.20
2018-09-17T17:09:11.132Z,24.30
2018-09-17T17:11:37.619Z,24.20
2018-09-17T17:14:04.799Z,24.20
2018-09-17T17:16:31.385Z,24.20
2018-09-17T17:18:58.092Z,24.30
2018-09-17T17:21:24.557Z,24.30
2018-09-17T17:23:51.151Z,24.30
2018-09-17T17:26:17.726Z,24.30
2018-09-17T17:28:44.288Z,24.30
2018-09-17T17:31:10.810Z,24.30
2018-09-17T17:33:37.357Z,24.30
2018-09-17T17:36:04.411Z,24.30
2018-09-17T17:38:30.955Z,24.30
2018-09-17T17:40:57.434Z,24.30
2018-09-17T17:43:23.903Z,24.30
2018-09-17T17:45:50.406Z,24.30
2018-09-17T17:48:16.851Z,24.30
2018-09-17T17:50:43.335Z,24.30
2018-09-17T17:53:09.857Z,24.30
2018-09-17T17:55:36.965Z,24.30
2018-09-17T17:58:03.442Z,24.30
2018-09-17T18:00:29.920Z,24.30
2018-09-17T18:02:56.402Z,24.30
2018-09-17T18:05:23.121Z,24.30
2018-09-17T18:07:49.595Z,24.30
2018-09-17T18:10:16.122Z,24.30
2018-09-17T18:12:42.658Z,24.30
2018-09-17T18:15:09.241Z,24.30
2018-09-17T18:17:35.698Z,24.30
2018-09-17T18:20:05.647Z,24.30
2018-09-17T18:22:32.432Z,24.30
2018-09-17T18:24:58.900Z,24.30
2018-09-17T18:27:25.366Z,24.30
2018-09-17T18:29:51.812Z,24.30
2018-09-17T18:32:18.244Z,24.30
2018-09-17T18:34:44.979Z,24.30
2018-09-17T18:37:11.520Z,24.30
2018-09-17T18:39:38.661Z,24.30
2018-09-17T18:42:05.099Z,24.30
2018-09-17T18:44:31.568Z,24.30
2018-09-17T18:46:58.006Z,24.30
2018-09-17T18:49:24.471Z,24.30
2018-09-17T18:51:51.004Z,24.30
2018-09-17T18:54:17.579Z,24.30
2018-09-17T18:56:44.051Z,24.30
2018-09-17T18:59:10.494Z,24.30
2018-09-17T19:01:36.995Z,24.20
2018-09-17T19:04:03.496Z,24.20
2018-09-17T19:06:29.925Z,24.30
2018-09-17T19:08:56.465Z,24.30
2018-09-17T19:11:22.999Z,24.20
2018-09-17T19:13:55.203Z,24.20
2018-09-17T19:16:27.415Z,24.20
2018-09-17T19:18:53.892Z,24.20
2018-09-17T19:21:20.514Z,24.20
2018-09-17T19:23:52.626Z,24.20
2018-09-17T19:26:19.097Z,24.20
2018-09-17T19:28:51.241Z,24.30
2018-09-17T19:31:17.736Z,24.20
2018-09-17T19:33:44.249Z,24.20
2018-09-17T19:36:10.894Z,24.20
2018-09-17T19:38:43.063Z,24.20
2018-09-17T19:41:09.534Z,24.30
2018-09-17T19:43:36.070Z,24.20
2018-09-17T19:46:13.292Z,24.20
2018-09-17T19:48:39.778Z,24.20
2018-09-17T19:51:11.973Z,24.20
2018-09-17T19:53:38.461Z,24.20
2018-09-17T19:56:05.219Z,24.20
2018-09-17T19:58:37.334Z,24.20
2018-09-17T20:01:03.807Z,24.20
2018-09-17T20:03:30.242Z,24.20
2018-09-17T20:06:02.641Z,24.20
2018-09-17T20:08:29.132Z,24.20
2018-09-17T20:10:55.732Z,24.20
2018-09-17T20:13:22.226Z,24.20
2018-09-17T20:15:48.881Z,24.20
2018-09-17T20:18:15.420Z,24.20
2018-09-17T20:20:41.923Z,24.20
2018-09-17T20:23:08.462Z,24.20
2018-09-17T20:25:34.969Z,24.20
2018-09-17T20:28:01.467Z,24.20
2018-09-17T20:30:27.947Z,24.20
2018-09-17T20:32:54.591Z,24.20
2018-09-17T20:35:21.715Z,24.20
2018-09-17T20:37:48.185Z,24.20
2018-09-17T20:40:14.693Z,24.20
2018-09-17T20:42:41.164Z,24.20
2018-09-17T20:45:07.640Z,24.20
2018-09-17T20:47:34.106Z,24.20
2018-09-17T20:50:00.694Z,24.20
2018-09-17T20:52:27.129Z,24.20
2018-09-17T20:54:53.667Z,24.20
2018-09-17T20:57:20.127Z,24.20
2018-09-17T20:59:46.600Z,24.20
2018-09-17T21:02:13.091Z,24.20
2018-09-17T21:04:39.698Z,24.20
2018-09-17T21:07:06.183Z,24.20
2018-09-17T21:09:32.744Z,24.20
2018-09-17T21:11:59.671Z,24.20
2018-09-17T21:14:26.163Z,24.20
2018-09-17T21:16:52.611Z,24.20
2018-09-17T21:19:19.128Z,24.20
2018-09-17T21:21:45.619Z,24.20
2018-09-17T21:24:12.092Z,24.20
2018-09-17T21:26:38.567Z,24.20
2018-09-17T21:29:05.024Z,24.20
2018-09-17T21:31:31.493Z,24.20
2018-09-17T21:33:57.990Z,24.20
2018-09-17T21:36:24.526Z,24.20
2018-09-17T21:38:51.026Z,24.20
2018-09-17T21:41:17.480Z,24.20
2018-09-17T21:43:44.056Z,24.20
2018-09-17T21:46:11.004Z,24.20
2018-09-17T21:48:37.516Z,24.20
2018-09-17T21:51:03.968Z,24.20
2018-09-17T21:53:30.430Z,24.20
2018-09-17T21:55:57.600Z,24.20
2018-09-17T21:58:24.053Z,24.10
2018-09-17T22:00:56.234Z,24.20
2018-09-17T22:03:22.732Z,24.20
2018-09-17T22:05:49.248Z,24.20
2018-09-17T22:08:15.714Z,24.20
2018-09-17T22:10:42.184Z,24.10
2018-09-17T22:13:08.748Z,24.10
2018-09-17T22:15:35.220Z,24.10
2018-09-17T22:18:01.766Z,24.20
2018-09-17T22:20:28.247Z,24.20
2018-09-17T22:22:54.741Z,24.10
2018-09-17T22:25:21.284Z,24.20
2018-09-17T22:27:47.742Z,24.10
2018-09-17T22:30:14.228Z,24.20
2018-09-17T22:32:40.712Z,24.20
2018-09-17T22:35:07.211Z,24.20
2018-09-17T22:37:33.678Z,24.10
2018-09-17T22:40:00.190Z,24.10
2018-09-17T22:42:26.947Z,24.20
2018-09-17T22:44:53.456Z,24.10
2018-09-17T22:47:20.052Z,24.10
2018-09-17T22:49:46.538Z,24.10
2018-09-17T22:52:13.005Z,24.10
2018-09-17T22:54:39.429Z,24.10
2018-09-17T22:57:06.007Z,24.10
2018-09-17T22:59:32.477Z,24.10
2018-09-17T23:01:58.953Z,24.10
2018-09-17T23:04:25.439Z,24.10
2018-09-17T23:06:51.873Z,24.10
2018-09-17T23:09:18.367Z,24.10
2018-09-17T23:11:44.819Z,24.10
2018-09-17T23:14:11.298Z,24.10
2018-09-17T23:16:37.762Z,24.10
2018-09-17T23:19:04.195Z,24.10
2018-09-17T23:21:30.677Z,24.10
2018-09-17T23:23:57.168Z,24.10
2018-09-17T23:26:23.652Z,24.10
2018-09-17T23:28:50.144Z,24.10
2018-09-17T23:31:16.597Z,24.10
2018-09-17T23:33:43.108Z,24.10
2018-09-17T23:36:09.578Z,24.10
2018-09-17T23:38:36.055Z,24.10
2018-09-17T23:41:02.547Z,24.10
2018-09-17T23:43:29.057Z,24.10
2018-09-17T23:45:55.532Z,24.10
2018-09-17T23:48:22.073Z,24.10
2018-09-17T23:50:48.563Z,24.00
2018-09-17T23:53:15.024Z,24.10
2018-09-17T23:55:41.486Z,24.10
2018-09-17T23:58:08.019Z,24.10
